map of SFS home
SFS - Airport
Location
City:  Subic Bay, Philippines
Name:Subic Bay International Airport
ICAO:RPLB
IATA:SFS

Details
Type:Airport (Aerodrome, Airfield)
Use:Public/Civil, International (customs port of entry)
Latitude:14°47'40"N (14.794450)
Longitude:120°16'17"E (120.271364)
Datum:WGS 1984
Elevation:64 ft (20 m)
Variation:2.23°W (WMM2015v2 magnetic declination)
-0.08° annual change
Runways:1
Longest:9003 × 148 ft (2744 × 45 m), paved

Time
Time Zone:UTC+8
Local Time:

Weather
METAR:RPLB 041400Z 06005KT 9999 FEW020 SCT300 24/19 Q1016 NOSIG RMK A3000
TAF:RPLB 041100Z 0412/0512 08004KT 9999 FEW020 SCT300 TX32/0507Z TN22/0422Z
TEMPO 0412/0418 07008KT FEW018 SCT080

Related Locations
Nearby:
Farthest:SJRC: 12446 mi / 20031 km
Vila Bela da Santíssima Trindade [Serra da Borda], MT, BR

Find:

   beyond  
but within

Other Information
Maps:
NOTAMs:
Links:
Sources:

  
  • flag of Philippines
  

Sectional Chart

Flight Planning
at skyvector.com

Satellite Image

Google Maps Satellite view

 

Copyright © 2004-2019 Karl L. Swartz. All rights reserved.
The Great Circle Mapper name and logo are trademarks of the Great Circle Mapper.
All other trademarks mentioned herein belong to their respective owners.
Please see credits for attibutions and further copyright information.

  Follow gcmap on Facebook Follow gcmap on Twitter GCmap on LinkedIn

hCard Microformat

Geo Microformat